Terminal Aerodrome Forecast
Issued by NWS

Home | Current Version | Previous Version | Graphics & Text | Print | Product List | Glossary On
Versions: 1 2 3 4 5 6 7 8 9 10 11 12 13 14 15 16 17 18 19 20 21 22 23 24 25 26 27 28 29 30 31 32 33 34 35 36 37 38 39 40 41 42
140
FTUS43 KGRB 250426 AAA
TAFATW
TAF AMD
KATW 250426Z 2504/2524 01016G25KT 3SM -FZDZSN BR OVC008
     FM250600 35017G25KT 2SM -SN BR OVC010
     FM251100 32017G25KT P6SM -SN SCT010 OVC020
     FM251500 30017G25KT P6SM SCT012 OVC030=

USA.gov is the U.S. government's official web portal to all federal, state and local government web resources and services.